Time;durP1;ratioP1;P1;durP2;ratioP2;P2;SDS_P1;SDS_P2;PMS_P1;PMS_P2;Temp;Humidity;BMP_temperature;BMP_pressure;BME280_temperature;BME280_humidity;BME280_pressure;Samples;Min_cycle;Max_cycle;Signal;HPM_P1;HPM_P2
2022/07/19 00:01:05;;;;;;;3.97;3.73;;;20.90;99.90;;;;;;5052962;28;20218;-49
2022/07/19 00:03:32;;;;;;;3.27;3.10;;;20.90;99.90;;;;;;5052512;28;20255;-49
2022/07/19 00:06:00;;;;;;;3.30;3.10;;;20.80;99.90;;;;;;5053197;28;20198;-49
2022/07/19 00:08:27;;;;;;;3.33;3.07;;;20.80;99.90;;;;;;5052387;28;20289;-49
2022/07/19 00:10:54;;;;;;;4.13;3.33;;;20.80;99.90;;;;;;5052761;28;20255;-49
2022/07/19 00:13:22;;;;;;;3.30;3.10;;;20.70;99.90;;;;;;5099157;22;20261;-54
2022/07/19 00:15:49;;;;;;;4.30;3.53;;;20.80;99.90;;;;;;5089827;28;20306;-54
2022/07/19 00:18:16;;;;;;;3.50;3.37;;;20.70;99.90;;;;;;5092680;28;20236;-54
2022/07/19 00:20:43;;;;;;;2.70;2.60;;;20.80;99.90;;;;;;5092052;28;20236;-54
2022/07/19 00:23:11;;;;;;;3.07;2.83;;;20.80;99.90;;;;;;5081988;28;20697;-54
2022/07/19 00:25:38;;;;;;;4.67;3.23;;;20.90;99.90;;;;;;5091596;28;20201;-54
2022/07/19 00:28:05;;;;;;;3.43;3.20;;;20.90;99.90;;;;;;5092598;28;20234;-54
2022/07/19 00:30:32;;;;;;;3.07;2.87;;;20.90;99.90;;;;;;5092475;28;20240;-55
2022/07/19 00:32:59;;;;;;;3.17;2.93;;;20.90;99.90;;;;;;5090826;28;20251;-55
2022/07/19 00:35:26;;;;;;;3.47;3.37;;;20.80;99.90;;;;;;5091252;28;20216;-54
2022/07/19 00:37:53;;;;;;;3.40;3.20;;;20.60;99.90;;;;;;5092576;28;20201;-55
2022/07/19 00:40:24;;;;;;;4.53;3.47;;;20.60;99.90;;;;;;5092618;28;20208;-55
2022/07/19 00:42:52;;;;;;;3.40;3.20;;;20.60;99.90;;;;;;5091672;28;20251;-54
2022/07/19 00:45:19;;;;;;;3.80;3.57;;;20.60;99.90;;;;;;5089358;28;20201;-54
2022/07/19 00:47:46;;;;;;;3.67;3.57;;;20.60;99.90;;;;;;5092294;28;20197;-54
2022/07/19 00:50:13;;;;;;;4.00;3.90;;;20.50;99.90;;;;;;5092353;28;20242;-54
2022/07/19 00:52:40;;;;;;;3.23;3.13;;;20.40;99.90;;;;;;5088305;28;20246;-54
2022/07/19 00:55:10;;;;;;;4.00;3.47;;;20.40;99.90;;;;;;5091939;28;20689;-54
2022/07/19 00:57:39;;;;;;;3.80;3.60;;;20.30;99.90;;;;;;5090303;28;20246;-54
2022/07/19 01:00:08;;;;;;;3.27;3.17;;;20.20;99.90;;;;;;5091647;28;20197;-54
2022/07/19 01:02:37;;;;;;;4.20;3.87;;;20.20;99.90;;;;;;5083032;28;20221;-54
2022/07/19 01:05:05;;;;;;;3.27;3.07;;;20.20;99.90;;;;;;5086900;28;20612;-54
2022/07/19 01:07:34;;;;;;;4.93;3.10;;;20.10;99.90;;;;;;5086692;28;20204;-54
2022/07/19 01:10:01;;;;;;;3.67;3.43;;;20.10;99.90;;;;;;5091461;28;20231;-54
2022/07/19 01:12:29;;;;;;;4.33;3.83;;;20.10;99.90;;;;;;5089777;28;20260;-55
2022/07/19 01:14:58;;;;;;;3.90;3.60;;;20.10;99.90;;;;;;5091746;28;20216;-54
2022/07/19 01:17:26;;;;;;;3.03;2.93;;;20.20;99.90;;;;;;5092084;28;20359;-54
2022/07/19 01:19:54;;;;;;;3.90;3.60;;;20.20;99.90;;;;;;5091027;28;20243;-54
2022/07/19 01:22:23;;;;;;;5.77;3.47;;;20.20;99.90;;;;;;5084739;28;20221;-54
2022/07/19 01:24:50;;;;;;;3.40;3.20;;;20.10;99.90;;;;;;5086279;28;20200;-57
2022/07/19 01:27:16;;;;;;;6.53;4.00;;;20.10;99.90;;;;;;5083480;28;20345;-54
2022/07/19 01:29:43;;;;;;;3.40;3.30;;;20.10;99.90;;;;;;5083368;28;20201;-53
2022/07/19 01:32:10;;;;;;;4.97;4.00;;;20.00;99.90;;;;;;5082041;28;20289;-54
2022/07/19 01:34:38;;;;;;;4.33;4.13;;;20.10;99.90;;;;;;5083029;28;20759;-57
2022/07/19 01:37:05;;;;;;;3.97;3.63;;;20.00;99.90;;;;;;5089435;28;20205;-54
2022/07/19 01:39:33;;;;;;;4.53;3.43;;;20.00;99.90;;;;;;5090449;28;20627;-54
2022/07/19 01:42:00;;;;;;;4.13;3.83;;;20.10;99.90;;;;;;5091087;28;20554;-54
2022/07/19 01:44:31;;;;;;;3.80;3.60;;;20.00;99.90;;;;;;5091127;28;20698;-54
2022/07/19 01:46:58;;;;;;;9.27;3.83;;;20.00;99.90;;;;;;5091470;28;20192;-51
2022/07/19 01:49:25;;;;;;;4.50;4.30;;;20.00;99.90;;;;;;5087525;28;20568;-53
2022/07/19 01:51:51;;;;;;;4.37;4.13;;;20.00;99.90;;;;;;5090447;28;20258;-54
2022/07/19 01:54:18;;;;;;;4.10;3.80;;;19.90;99.90;;;;;;5105317;28;20192;-54
2022/07/19 01:56:47;;;;;;;4.03;3.90;;;19.90;99.90;;;;;;5111516;28;20666;-53
2022/07/19 01:59:14;;;;;;;4.27;3.93;;;19.90;99.90;;;;;;5111561;28;20203;-53
2022/07/19 02:01:41;;;;;;;4.33;4.03;;;19.90;99.90;;;;;;5104432;28;20200;-53
2022/07/19 02:04:08;;;;;;;5.67;3.50;;;19.90;99.90;;;;;;5090273;28;20315;-53
2022/07/19 02:06:35;;;;;;;3.57;3.43;;;19.90;99.90;;;;;;5090557;28;20204;-53
2022/07/19 02:09:01;;;;;;;3.80;3.50;;;19.90;99.90;;;;;;5091565;28;20196;-53
2022/07/19 02:11:36;;;;;;;4.03;3.67;;;19.80;99.90;;;;;;5090227;28;20261;-53
2022/07/19 02:14:05;;;;;;;3.53;3.43;;;19.80;99.90;;;;;;5088428;28;20227;-53
2022/07/19 02:16:32;;;;;;;3.83;3.73;;;19.80;99.90;;;;;;5088541;28;20307;-53
2022/07/19 02:18:59;;;;;;;3.53;3.33;;;19.70;99.90;;;;;;5089832;28;20204;-53
2022/07/19 02:21:26;;;;;;;3.97;3.73;;;19.60;99.90;;;;;;5089994;28;20213;-54
2022/07/19 02:23:53;;;;;;;4.47;3.50;;;19.50;99.90;;;;;;5088436;28;20228;-53
2022/07/19 02:26:20;;;;;;;4.00;3.70;;;19.50;99.90;;;;;;5087561;28;20197;-53
2022/07/19 02:28:47;;;;;;;3.53;3.43;;;19.40;99.90;;;;;;5087835;28;20208;-53
2022/07/19 02:31:15;;;;;;;4.13;3.70;;;19.40;99.90;;;;;;5090414;28;20266;-53
2022/07/19 02:33:42;;;;;;;4.43;4.23;;;19.40;99.90;;;;;;5088347;28;20427;-53
2022/07/19 02:36:09;;;;;;;3.47;3.27;;;19.40;99.90;;;;;;5084537;28;20235;-53
2022/07/19 02:38:36;;;;;;;4.30;3.73;;;19.30;99.90;;;;;;5094176;28;20222;-54
2022/07/19 02:41:03;;;;;;;4.87;4.40;;;19.30;99.90;;;;;;5094477;28;20193;-53
2022/07/19 02:43:30;;;;;;;3.43;3.33;;;19.30;99.90;;;;;;5093942;28;20224;-54
2022/07/19 02:45:57;;;;;;;3.60;3.40;;;19.30;99.90;;;;;;5094655;28;20196;-54
2022/07/19 02:48:26;;;;;;;3.27;3.03;;;19.20;99.90;;;;;;5093655;28;20196;-53
2022/07/19 02:50:53;;;;;;;3.90;3.70;;;19.20;99.90;;;;;;5094818;28;20200;-53
2022/07/19 02:53:20;;;;;;;4.40;3.90;;;19.20;99.90;;;;;;5093170;28;20297;-53
2022/07/19 02:55:47;;;;;;;2.70;2.60;;;19.20;99.90;;;;;;5093619;28;20213;-54
2022/07/19 02:58:13;;;;;;;3.23;2.97;;;19.10;99.90;;;;;;5093493;28;20250;-53
2022/07/19 03:00:40;;;;;;;4.20;3.87;;;19.10;99.90;;;;;;5094390;28;20257;-53
2022/07/19 03:05:50;;;;;;;3.60;3.50;;;19.00;99.90;;;;;;5093428;28;20193;-53
2022/07/19 03:08:17;;;;;;;4.57;4.23;;;18.90;99.90;;;;;;5093367;28;20674;-53
2022/07/19 03:10:44;;;;;;;4.70;4.40;;;18.90;99.90;;;;;;5094181;28;20242;-53
2022/07/19 03:13:11;;;;;;;3.87;3.67;;;18.90;99.90;;;;;;5083619;28;20636;-53
2022/07/19 03:15:39;;;;;;;4.60;4.40;;;18.90;99.90;;;;;;5094294;28;20255;-53
2022/07/19 03:18:06;;;;;;;4.17;3.97;;;18.90;99.90;;;;;;5093850;28;20253;-53
2022/07/19 03:20:33;;;;;;;6.50;6.03;;;18.90;99.90;;;;;;5094032;28;20254;-53
2022/07/19 03:23:02;;;;;;;5.53;5.17;;;18.80;99.90;;;;;;5092289;28;20303;-53
2022/07/19 03:25:29;;;;;;;5.27;4.00;;;18.90;99.90;;;;;;5094102;28;20197;-54
2022/07/19 03:27:55;;;;;;;4.80;4.50;;;18.80;99.90;;;;;;5093134;28;20204;-53
2022/07/19 03:30:23;;;;;;;5.40;4.83;;;18.70;99.90;;;;;;5093545;28;20236;-53
2022/07/19 03:32:50;;;;;;;5.27;4.43;;;18.70;99.90;;;;;;5092467;28;20251;-53
2022/07/19 03:35:16;;;;;;;5.17;4.67;;;18.70;99.90;;;;;;5094186;28;20213;-53
2022/07/19 03:37:43;;;;;;;5.03;4.70;;;18.70;99.90;;;;;;5092209;28;20231;-53
2022/07/19 03:40:13;;;;;;;4.20;4.10;;;18.70;99.90;;;;;;5090973;28;20228;-53
2022/07/19 03:42:40;;;;;;;4.93;4.73;;;18.70;99.90;;;;;;5092885;28;20262;-53
2022/07/19 03:45:08;;;;;;;4.60;4.27;;;18.70;99.90;;;;;;5093835;28;20676;-53
2022/07/19 03:47:35;;;;;;;4.67;4.47;;;18.60;99.90;;;;;;5091813;28;20209;-52
2022/07/19 03:50:02;;;;;;;4.53;4.23;;;18.70;99.90;;;;;;5092318;28;20258;-52
2022/07/19 03:52:29;;;;;;;4.10;4.00;;;18.70;99.90;;;;;;5092694;28;20628;-53
2022/07/19 03:54:56;;;;;;;4.33;4.03;;;18.70;99.90;;;;;;5093413;28;20239;-53
2022/07/19 03:57:24;;;;;;;6.07;5.23;;;18.70;99.90;;;;;;5092262;28;20337;-53
2022/07/19 03:59:51;;;;;;;5.30;4.90;;;18.60;99.90;;;;;;5092247;28;20255;-52
2022/07/19 04:02:18;;;;;;;5.60;5.20;;;18.60;99.90;;;;;;5092464;28;20216;-53
2022/07/19 04:04:45;;;;;;;4.73;4.43;;;18.60;99.90;;;;;;5093237;28;20250;-53
2022/07/19 04:07:12;;;;;;;4.73;4.33;;;18.60;99.90;;;;;;5092575;28;20197;-53
2022/07/19 04:09:39;;;;;;;4.73;4.47;;;18.60;99.90;;;;;;5092031;28;20196;-52
2022/07/19 04:12:06;;;;;;;6.67;5.57;;;18.50;99.90;;;;;;5092172;28;20279;-53
2022/07/19 04:14:34;;;;;;;5.30;4.90;;;18.50;99.90;;;;;;5093242;28;20208;-53
2022/07/19 04:17:04;;;;;;;5.00;4.63;;;18.50;99.90;;;;;;5091880;28;20232;-53
2022/07/19 04:19:31;;;;;;;4.90;4.57;;;18.60;99.90;;;;;;5091158;28;20208;-53
2022/07/19 04:21:58;;;;;;;5.00;4.60;;;18.60;99.90;;;;;;5079567;28;20778;-53
2022/07/19 04:24:25;;;;;;;5.53;5.23;;;18.70;99.90;;;;;;5086351;28;20242;-52
2022/07/19 04:26:52;;;;;;;5.47;5.00;;;18.70;99.90;;;;;;5084393;28;20192;-53
2022/07/19 04:29:19;;;;;;;5.47;5.00;;;18.80;99.90;;;;;;5090249;28;20348;-53
2022/07/19 04:31:47;;;;;;;4.33;3.97;;;18.90;99.90;;;;;;5077924;28;20718;-53
2022/07/19 04:34:14;;;;;;;5.00;4.50;;;19.00;99.90;;;;;;5090264;28;20200;-53
2022/07/19 04:36:41;;;;;;;5.20;4.77;;;19.10;99.90;;;;;;5087003;28;20223;-53
2022/07/19 04:39:08;;;;;;;4.47;4.27;;;19.10;99.90;;;;;;5091254;28;20643;-53
2022/07/19 04:41:35;;;;;;;4.67;4.47;;;19.10;99.90;;;;;;5091344;28;20265;-52
2022/07/19 04:44:02;;;;;;;6.83;6.00;;;19.20;99.90;;;;;;5091352;28;20273;-53
2022/07/19 04:46:29;;;;;;;5.70;5.20;;;19.30;99.90;;;;;;5086076;28;20196;-53
2022/07/19 04:49:00;;;;;;;6.13;5.83;;;19.40;99.90;;;;;;5091255;28;20200;-53
2022/07/19 04:51:27;;;;;;;5.97;5.43;;;19.50;99.90;;;;;;5088764;28;20265;-53
2022/07/19 04:53:54;;;;;;;10.60;5.97;;;19.50;99.90;;;;;;5087815;28;20319;-53
2022/07/19 04:56:21;;;;;;;6.03;5.63;;;19.60;99.90;;;;;;5086359;28;20275;-53
2022/07/19 04:58:48;;;;;;;7.40;6.40;;;19.70;99.90;;;;;;5088449;28;20265;-53
2022/07/19 05:01:15;;;;;;;6.37;5.77;;;19.90;99.90;;;;;;5091520;28;20545;-53
2022/07/19 05:03:42;;;;;;;5.83;5.20;;;20.00;99.90;;;;;;5091958;28;20239;-53
2022/07/19 05:06:10;;;;;;;6.20;5.70;;;20.30;99.90;;;;;;5087395;28;20211;-53
2022/07/19 05:08:37;;;;;;;5.80;5.37;;;20.60;99.90;;;;;;5089043;28;20208;-53
2022/07/19 05:11:04;;;;;;;5.60;5.17;;;21.10;99.90;;;;;;5088333;28;20250;-52
2022/07/19 05:13:31;;;;;;;5.70;5.30;;;21.90;99.90;;;;;;5085784;28;20229;-53
2022/07/19 05:15:58;;;;;;;4.90;4.37;;;22.90;99.90;;;;;;5086491;28;22189;-53
2022/07/19 05:18:25;;;;;;;5.33;4.40;;;23.90;99.90;;;;;;5089115;28;20204;-54
2022/07/19 05:20:52;;;;;;;7.07;5.30;;;25.00;99.90;;;;;;5083737;28;20235;-53
2022/07/19 05:23:21;;;;;;;7.77;5.70;;;25.90;99.90;;;;;;5088230;28;20301;-53
2022/07/19 05:25:47;;;;;;;5.47;5.00;;;26.70;99.90;;;;;;5079057;28;20192;-53
2022/07/19 05:28:15;;;;;;;9.50;5.80;;;27.50;99.90;;;;;;5076824;28;20201;-53
2022/07/19 05:30:43;;;;;;;7.83;5.20;;;28.00;99.20;;;;;;5082253;28;20209;-55
2022/07/19 05:33:10;;;;;;;5.20;4.90;;;28.60;98.60;;;;;;5082738;28;20223;-53
2022/07/19 05:35:38;;;;;;;8.93;5.25;;;28.80;97.40;;;;;;5077992;28;20217;-53
2022/07/19 05:38:05;;;;;;;6.55;5.22;;;29.10;96.90;;;;;;5084517;28;20200;-53
2022/07/19 05:40:33;;;;;;;6.88;5.80;;;29.20;96.60;;;;;;5077655;28;20640;-53
2022/07/19 05:43:00;;;;;;;4.97;4.65;;;29.50;95.80;;;;;;5084355;28;20216;-53
2022/07/19 05:45:27;;;;;;;6.65;5.40;;;29.90;95.20;;;;;;5075693;28;20201;-54
2022/07/19 05:47:54;;;;;;;6.97;4.72;;;29.60;96.20;;;;;;5083012;28;20213;-53
2022/07/19 05:50:21;;;;;;;4.38;4.18;;;30.20;93.80;;;;;;5069968;28;20248;-53
2022/07/19 05:52:48;;;;;;;4.47;4.07;;;30.30;92.90;;;;;;5075680;28;20221;-53
2022/07/19 05:55:15;;;;;;;5.25;4.85;;;30.70;93.50;;;;;;5079962;28;20196;-54
2022/07/19 05:57:44;;;;;;;4.97;4.57;;;31.00;91.60;;;;;;5071752;28;20337;-53
2022/07/19 06:00:11;;;;;;;4.93;4.50;;;30.60;92.90;;;;;;5077240;28;20188;-53
2022/07/19 06:02:38;;;;;;;4.68;4.22;;;30.70;91.50;;;;;;5082151;28;20221;-53
2022/07/19 06:05:06;;;;;;;10.45;4.93;;;30.90;90.80;;;;;;5078612;28;20291;-53
2022/07/19 06:07:33;;;;;;;5.88;4.15;;;31.00;90.80;;;;;;5086506;28;20667;-54
2022/07/19 06:10:01;;;;;;;5.90;4.57;;;31.70;90.70;;;;;;5076620;28;20243;-53
2022/07/19 06:12:28;;;;;;;4.65;4.10;;;32.00;88.70;;;;;;5077259;28;20270;-53
2022/07/19 06:14:57;;;;;;;7.10;4.28;;;31.90;89.10;;;;;;5081340;22;20635;-51
2022/07/19 06:17:24;;;;;;;4.65;4.05;;;31.80;87.00;;;;;;5024658;28;20222;-51
2022/07/19 06:19:51;;;;;;;6.45;4.47;;;31.40;86.50;;;;;;5032870;28;20198;-50
2022/07/19 06:22:18;;;;;;;4.68;4.25;;;32.20;87.90;;;;;;5029780;28;20272;-51
2022/07/19 06:24:45;;;;;;;3.75;3.65;;;32.70;84.90;;;;;;5023455;28;20218;-51
2022/07/19 06:27:12;;;;;;;3.38;3.28;;;33.00;84.70;;;;;;5014363;28;20203;-51
2022/07/19 06:29:39;;;;;;;4.07;3.30;;;33.10;86.00;;;;;;5012524;28;20249;-51
2022/07/19 06:32:07;;;;;;;4.00;3.67;;;33.00;81.80;;;;;;5019269;28;20198;-51
2022/07/19 06:34:34;;;;;;;3.67;3.58;;;33.00;81.90;;;;;;5010010;28;20226;-51
2022/07/19 06:37:01;;;;;;;4.70;4.30;;;32.90;84.50;;;;;;5011399;28;20215;-51
2022/07/19 06:39:29;;;;;;;3.28;2.97;;;32.70;80.30;;;;;;5010883;28;20262;-51
2022/07/19 06:41:56;;;;;;;3.83;3.63;;;32.70;82.90;;;;;;5012349;28;20681;-51
2022/07/19 06:44:23;;;;;;;10.18;3.50;;;33.20;81.30;;;;;;5013212;28;20226;-50
2022/07/19 06:46:50;;;;;;;4.22;3.45;;;33.30;80.80;;;;;;5012796;28;20215;-51
2022/07/19 06:49:18;;;;;;;3.78;3.63;;;33.40;80.60;;;;;;5012675;28;20241;-51
2022/07/19 06:51:45;;;;;;;5.00;3.90;;;33.80;82.20;;;;;;5013888;28;20199;-51
2022/07/19 06:54:12;;;;;;;6.13;3.85;;;33.50;81.80;;;;;;5013260;28;20230;-51
2022/07/19 06:56:39;;;;;;;4.03;3.72;;;34.00;81.50;;;;;;5013401;28;20239;-51
2022/07/19 06:59:06;;;;;;;6.75;4.07;;;33.80;78.30;;;;;;5014440;28;20696;-51
2022/07/19 07:01:33;;;;;;;3.95;3.67;;;34.10;76.70;;;;;;5013581;28;20287;-51
2022/07/19 07:04:00;;;;;;;3.72;3.40;;;33.70;78.30;;;;;;5013115;28;20305;-51
2022/07/19 07:06:28;;;;;;;7.03;3.72;;;33.60;79.40;;;;;;5013802;28;20199;-51
2022/07/19 07:08:56;;;;;;;4.15;3.85;;;33.80;81.50;;;;;;5013191;28;20295;-52
2022/07/19 07:11:22;;;;;;;3.42;3.22;;;33.80;81.00;;;;;;5011254;28;20199;-51
2022/07/19 07:13:49;;;;;;;4.57;4.18;;;34.30;78.00;;;;;;5013208;28;20292;-51
2022/07/19 07:16:16;;;;;;;4.18;3.95;;;34.30;81.10;;;;;;5014706;28;20383;-51
2022/07/19 07:18:43;;;;;;;4.28;3.97;;;34.50;81.10;;;;;;5014717;28;20207;-52
2022/07/19 07:21:10;;;;;;;7.05;4.30;;;34.90;77.30;;;;;;5014075;28;20242;-51
2022/07/19 07:23:39;;;;;;;4.00;3.40;;;34.90;75.20;;;;;;5010505;28;20195;-51
2022/07/19 07:26:06;;;;;;;4.28;3.85;;;34.80;78.40;;;;;;5014590;28;20203;-52
2022/07/19 07:28:33;;;;;;;6.28;4.35;;;35.20;76.80;;;;;;5014482;28;20269;-51
2022/07/19 07:31:01;;;;;;;4.45;4.18;;;35.30;75.40;;;;;;5014817;28;20207;-52
2022/07/19 07:33:28;;;;;;;6.38;3.65;;;35.50;74.80;;;;;;5012705;28;20207;-51
2022/07/19 07:35:55;;;;;;;4.40;4.00;;;36.00;72.40;;;;;;5014217;28;20254;-52
2022/07/19 07:38:22;;;;;;;4.20;3.90;;;36.40;75.60;;;;;;5014418;28;20261;-51
2022/07/19 07:40:50;;;;;;;4.70;4.18;;;36.40;72.80;;;;;;5014339;28;20210;-52
2022/07/19 07:43:17;;;;;;;3.08;3.08;;;36.00;72.10;;;;;;5012340;28;20203;-51
2022/07/19 07:45:44;;;;;;;3.58;3.38;;;36.10;70.00;;;;;;5014161;28;20247;-52
2022/07/19 07:48:11;;;;;;;4.00;3.60;;;36.10;71.30;;;;;;5008816;28;20200;-51
2022/07/19 07:50:38;;;;;;;4.85;4.45;;;36.10;67.90;;;;;;5014078;28;20616;-51
2022/07/19 07:53:05;;;;;;;3.85;3.75;;;36.20;70.10;;;;;;5012786;28;20207;-51
2022/07/19 07:55:37;;;;;;;3.78;3.58;;;36.40;70.10;;;;;;5009371;28;20246;-51
2022/07/19 07:58:06;;;;;;;3.50;3.40;;;36.00;72.70;;;;;;5013343;28;20215;-51
2022/07/19 08:00:33;;;;;;;4.07;3.70;;;36.30;70.20;;;;;;5014363;28;20210;-51
2022/07/19 08:03:00;;;;;;;4.20;4.00;;;36.50;68.70;;;;;;5012702;28;20199;-52
2022/07/19 08:05:27;;;;;;;3.75;3.55;;;36.30;69.80;;;;;;5013699;28;20218;-52
2022/07/19 08:07:54;;;;;;;4.15;3.92;;;36.60;66.90;;;;;;5013804;28;20764;-51
2022/07/19 08:10:23;;;;;;;3.72;3.55;;;37.00;71.60;;;;;;5013659;28;20203;-52
2022/07/19 08:12:50;;;;;;;3.50;3.20;;;37.10;69.60;;;;;;5013046;28;20261;-52
2022/07/19 08:15:19;;;;;;;3.83;3.63;;;36.90;71.60;;;;;;5013425;28;20597;-51
2022/07/19 08:17:46;;;;;;;3.72;3.58;;;37.30;67.00;;;;;;5014837;28;20222;-51
2022/07/19 08:20:13;;;;;;;4.57;4.32;;;36.90;66.30;;;;;;5013313;28;20689;-52
2022/07/19 08:22:40;;;;;;;4.03;3.75;;;37.00;70.10;;;;;;5012740;28;20203;-52
2022/07/19 08:25:08;;;;;;;4.30;3.88;;;37.20;69.10;;;;;;5013598;28;20328;-52
2022/07/19 08:27:36;;;;;;;4.18;3.85;;;36.70;65.60;;;;;;5013629;28;20200;-51
2022/07/19 08:30:04;;;;;;;8.13;3.70;;;37.00;69.70;;;;;;5013453;28;20743;-51
2022/07/19 08:32:33;;;;;;;4.50;3.85;;;37.20;65.00;;;;;;5012724;28;20203;-51
2022/07/19 08:34:59;;;;;;;4.65;4.35;;;36.60;65.10;;;;;;5012764;28;20799;-52
2022/07/19 08:37:27;;;;;;;5.22;4.50;;;36.60;71.80;;;;;;5012888;28;20223;-51
2022/07/19 08:39:54;;;;;;;4.63;4.35;;;36.90;68.70;;;;;;5013377;28;20199;-52
2022/07/19 08:42:22;;;;;;;3.92;3.67;;;37.50;68.60;;;;;;5006263;28;20455;-52
2022/07/19 08:44:52;;;;;;;4.38;3.97;;;37.30;67.30;;;;;;5012897;28;20219;-52
2022/07/19 08:47:20;;;;;;;3.92;3.83;;;37.30;66.50;;;;;;5010191;28;20254;-51
2022/07/19 08:49:49;;;;;;;3.92;3.60;;;37.50;72.50;;;;;;5014729;28;20199;-52
2022/07/19 08:52:19;;;;;;;3.70;3.50;;;37.80;70.30;;;;;;5007648;28;20724;-52
2022/07/19 08:54:47;;;;;;;5.10;4.50;;;38.50;66.00;;;;;;5008184;28;20269;-52
2022/07/19 08:59:59;;;;;;;4.53;4.32;;;38.10;67.90;;;;;;5012079;28;20202;-51
2022/07/19 09:02:26;;;;;;;5.15;4.13;;;37.20;67.90;;;;;;5011210;28;20682;-51
2022/07/19 09:05:01;;;;;;;4.47;4.10;;;36.90;70.00;;;;;;5016089;28;20210;-51
2022/07/19 09:07:29;;;;;;;4.97;4.57;;;36.60;72.90;;;;;;5019076;28;20781;-51
2022/07/19 09:10:15;;;;;;;4.63;4.22;;;36.00;73.40;;;;;;5013613;28;20191;-51
2022/07/19 09:12:58;;;;;;;4.30;3.88;;;35.90;78.30;;;;;;5009217;28;20294;-51
2022/07/19 09:15:46;;;;;;;5.70;3.88;;;35.50;77.20;;;;;;5008467;28;20234;-51
2022/07/19 09:18:17;;;;;;;4.05;3.72;;;36.10;77.20;;;;;;5007674;28;20300;-52
2022/07/19 09:20:46;;;;;;;4.53;4.40;;;36.60;78.00;;;;;;5011580;28;20234;-51
2022/07/19 09:23:15;;;;;;;4.43;4.28;;;36.90;76.10;;;;;;5009818;28;20675;-51
2022/07/19 09:25:44;;;;;;;4.35;4.03;;;36.90;75.60;;;;;;5005711;28;20229;-52
2022/07/19 09:28:12;;;;;;;6.25;4.32;;;36.40;79.00;;;;;;5017556;28;20191;-51
2022/07/19 09:30:42;;;;;;;8.18;5.63;;;35.90;79.70;;;;;;5015242;28;20226;-51
2022/07/19 09:33:14;;;;;;;15.38;5.90;;;36.10;80.90;;;;;;5029086;28;20195;-51
2022/07/19 09:35:43;;;;;;;150.88;16.90;;;36.60;83.30;;;;;;5028049;28;20250;-51
2022/07/19 09:38:20;;;;;;;61.40;11.82;;;36.60;81.80;;;;;;5012282;28;20217;-51
2022/07/19 09:40:47;;;;;;;4.72;4.32;;;36.10;81.30;;;;;;5010983;28;20618;-51
2022/07/19 09:43:14;;;;;;;4.13;3.92;;;35.60;77.10;;;;;;5021913;28;20668;-51
2022/07/19 09:45:41;;;;;;;6.60;3.90;;;36.20;79.30;;;;;;5019457;28;20234;-51
2022/07/19 09:48:08;;;;;;;5.78;4.22;;;36.10;80.90;;;;;;4992267;28;20204;-51
2022/07/19 09:50:36;;;;;;;4.70;4.43;;;36.20;82.60;;;;;;5008590;28;20203;-51
2022/07/19 09:53:04;;;;;;;5.07;3.88;;;36.20;78.80;;;;;;5010986;28;20227;-51
2022/07/19 09:55:33;;;;;;;4.10;3.85;;;36.90;70.90;;;;;;5011872;28;20223;-51
2022/07/19 09:58:03;;;;;;;3.70;3.60;;;36.50;77.20;;;;;;5011667;28;20230;-51
2022/07/19 10:00:30;;;;;;;4.32;4.05;;;36.30;80.10;;;;;;5011968;28;20297;-51
2022/07/19 10:03:00;;;;;;;4.05;3.75;;;36.60;72.70;;;;;;5007037;28;20258;-51
2022/07/19 10:05:28;;;;;;;7.13;4.38;;;36.60;75.00;;;;;;5011672;28;20227;-51
2022/07/19 10:07:56;;;;;;;4.18;3.72;;;36.80;75.50;;;;;;5011803;28;20206;-51
2022/07/19 10:10:24;;;;;;;3.47;3.25;;;36.90;69.70;;;;;;5011741;28;20228;-51
2022/07/19 10:12:53;;;;;;;3.67;3.42;;;37.20;67.70;;;;;;5010999;28;20203;-52
2022/07/19 10:15:20;;;;;;;3.95;3.67;;;37.00;71.00;;;;;;5011397;28;20231;-51
2022/07/19 10:18:10;;;;;;;3.95;3.70;;;37.20;73.40;;;;;;5011321;28;20223;-51
2022/07/19 10:20:38;;;;;;;3.78;3.45;;;36.90;75.80;;;;;;5010015;28;20207;-51
2022/07/19 10:23:06;;;;;;;3.88;3.58;;;37.00;77.70;;;;;;5011021;28;20230;-51
2022/07/19 10:25:44;;;;;;;3.90;3.60;;;36.80;69.20;;;;;;5011515;28;20266;-51
2022/07/19 10:28:31;;;;;;;3.30;3.05;;;36.00;72.40;;;;;;5011298;28;20195;-51
2022/07/19 10:30:58;;;;;;;3.35;3.15;;;36.30;78.50;;;;;;5010181;28;20239;-51
2022/07/19 10:33:36;;;;;;;3.92;3.67;;;36.70;76.80;;;;;;5010752;28;20203;-51
2022/07/19 10:36:38;;;;;;;3.75;3.55;;;36.70;72.40;;;;;;5009421;28;20206;-51
2022/07/19 10:39:30;;;;;;;4.07;3.40;;;36.70;71.90;;;;;;4991858;28;20735;-51
2022/07/19 10:42:17;;;;;;;3.88;3.78;;;37.40;68.50;;;;;;4991238;28;20675;-51
2022/07/19 10:45:12;;;;;;;3.67;3.47;;;36.80;74.40;;;;;;4995881;28;20223;-51
2022/07/19 10:48:02;;;;;;;3.35;3.25;;;36.40;74.10;;;;;;5014411;28;20227;-51
2022/07/19 10:50:49;;;;;;;6.32;3.97;;;36.80;73.20;;;;;;5016001;28;20198;-52
2022/07/19 10:53:56;;;;;;;3.67;3.47;;;36.70;71.00;;;;;;5007026;28;20199;-51
2022/07/19 10:56:27;;;;;;;3.50;3.38;;;37.10;71.70;;;;;;5009819;28;20278;-52
2022/07/19 10:58:56;;;;;;;3.78;3.58;;;36.80;71.90;;;;;;5021951;28;20222;-51
2022/07/19 11:01:27;;;;;;;4.03;3.45;;;36.60;69.80;;;;;;5015531;28;20215;-51
2022/07/19 11:03:56;;;;;;;3.42;3.33;;;36.20;69.90;;;;;;5017787;28;20238;-51
2022/07/19 11:06:24;;;;;;;3.40;3.20;;;36.20;72.60;;;;;;5013097;28;20227;-51
2022/07/19 11:08:56;;;;;;;3.28;2.83;;;35.80;74.80;;;;;;5031751;28;20256;-51
2022/07/19 11:11:23;;;;;;;3.00;2.88;;;35.00;71.70;;;;;;5013999;28;20241;-51
2022/07/19 11:13:52;;;;;;;3.47;3.33;;;34.30;72.50;;;;;;5014096;28;20310;-51
2022/07/19 11:16:20;;;;;;;3.90;3.78;;;33.70;75.50;;;;;;5013979;28;20262;-51
2022/07/19 11:18:51;;;;;;;4.03;3.75;;;33.60;78.60;;;;;;5010780;28;20216;-51
2022/07/19 11:21:19;;;;;;;3.47;3.30;;;33.60;75.20;;;;;;5013324;28;20652;-51
2022/07/19 11:23:46;;;;;;;4.28;3.97;;;33.60;79.10;;;;;;5013023;28;20223;-51
2022/07/19 11:26:17;;;;;;;3.22;3.13;;;33.70;75.20;;;;;;5011959;28;21878;-50
2022/07/19 11:28:45;;;;;;;3.15;2.95;;;33.90;74.50;;;;;;5009361;28;20223;-51
2022/07/19 11:31:15;;;;;;;2.92;2.70;;;33.90;78.70;;;;;;5012776;28;20203;-51
2022/07/19 11:33:43;;;;;;;3.40;3.30;;;33.50;75.70;;;;;;5023972;28;20202;-51
2022/07/19 11:36:15;;;;;;;3.10;3.00;;;33.50;86.00;;;;;;5013084;28;20191;-50
2022/07/19 11:38:43;;;;;;;3.30;3.20;;;33.30;74.40;;;;;;5016911;28;20235;-51
2022/07/19 11:41:15;;;;;;;3.17;2.97;;;33.10;75.70;;;;;;5026793;28;20194;-50
2022/07/19 11:43:45;;;;;;;3.00;2.90;;;32.90;75.40;;;;;;5019421;28;20234;-50
2022/07/19 11:46:17;;;;;;;3.30;3.00;;;32.70;79.60;;;;;;5019957;28;20976;-50
2022/07/19 11:48:44;;;;;;;5.38;4.85;;;32.50;78.30;;;;;;5009513;28;20203;-51
2022/07/19 11:51:13;;;;;;;4.55;4.13;;;32.60;78.10;;;;;;5012605;28;20900;-51
2022/07/19 11:53:42;;;;;;;2.95;2.85;;;32.70;80.60;;;;;;5014290;28;20203;-50
2022/07/19 11:56:18;;;;;;;3.55;3.35;;;32.80;77.80;;;;;;5015272;28;20200;-51
2022/07/19 11:58:45;;;;;;;3.55;3.45;;;32.90;78.70;;;;;;5013008;28;20281;-51
2022/07/19 12:01:13;;;;;;;3.47;3.28;;;32.90;78.80;;;;;;5012086;28;21027;-52
2022/07/19 12:03:40;;;;;;;3.53;3.20;;;32.90;78.20;;;;;;5013175;28;20237;-52
2022/07/19 12:06:09;;;;;;;3.25;3.15;;;33.00;76.80;;;;;;5013078;28;20202;-52
2022/07/19 12:08:40;;;;;;;3.80;3.45;;;33.20;82.10;;;;;;5012263;28;20202;-52
2022/07/19 12:11:24;;;;;;;2.90;2.80;;;33.10;83.40;;;;;;5012414;28;20206;-53
2022/07/19 12:13:52;;;;;;;3.70;3.40;;;33.00;77.40;;;;;;5013513;28;20269;-52
2022/07/19 12:16:19;;;;;;;7.88;3.97;;;33.10;77.20;;;;;;5004113;28;20602;-53
2022/07/19 12:18:51;;;;;;;4.35;4.03;;;33.20;79.10;;;;;;5003654;28;20330;-52
2022/07/19 12:21:23;;;;;;;3.42;3.25;;;33.20;78.80;;;;;;5001390;28;20685;-53
2022/07/19 12:24:15;;;;;;;4.13;3.83;;;33.20;79.80;;;;;;4999725;28;20305;-53
2022/07/19 12:26:45;;;;;;;4.35;3.70;;;33.10;80.20;;;;;;5001608;28;20238;-52
2022/07/19 12:29:24;;;;;;;3.50;3.33;;;33.30;82.00;;;;;;5002493;28;20202;-53
2022/07/19 12:31:52;;;;;;;3.60;3.35;;;33.40;83.30;;;;;;4999430;28;20234;-53
2022/07/19 12:34:20;;;;;;;4.20;4.00;;;33.40;81.00;;;;;;4999330;28;20231;-53
2022/07/19 12:36:47;;;;;;;3.60;3.40;;;33.50;80.40;;;;;;4999910;28;20286;-52
2022/07/19 12:39:21;;;;;;;4.13;3.92;;;33.40;80.80;;;;;;5001779;28;20226;-52
2022/07/19 12:42:08;;;;;;;3.65;3.40;;;33.30;82.50;;;;;;5002586;28;20199;-52
2022/07/19 12:44:36;;;;;;;3.42;3.33;;;33.10;82.30;;;;;;5043196;22;20774;-53
2022/07/19 12:47:03;;;;;;;3.92;3.80;;;33.10;82.60;;;;;;5045727;28;20554;-53
2022/07/19 12:49:44;;;;;;;3.97;3.88;;;33.20;85.70;;;;;;5050114;28;20652;-53
2022/07/19 12:52:11;;;;;;;3.13;3.03;;;33.00;84.80;;;;;;5043710;28;20230;-54
2022/07/19 12:54:39;;;;;;;3.63;3.35;;;33.00;83.00;;;;;;5039217;28;20262;-53
2022/07/19 12:57:07;;;;;;;6.25;4.15;;;32.90;86.50;;;;;;5031431;28;20207;-54
2022/07/19 12:59:40;;;;;;;4.10;3.78;;;32.70;85.80;;;;;;5017943;28;20222;-53